createdAt,value
2018-08-31T04:07:09.512Z,13.17
2018-08-31T04:17:11.992Z,13.10
2018-08-31T04:27:17.801Z,11.00
2018-08-31T04:37:20.366Z,10.53
2018-08-31T04:47:23.123Z,11.33
2018-08-31T04:57:25.635Z,9.70
2018-08-31T05:07:28.256Z,10.83
2018-08-31T05:17:30.845Z,9.93
2018-08-31T05:27:34.007Z,8.37
2018-08-31T05:37:36.495Z,7.90
2018-08-31T05:47:40.119Z,6.90
2018-08-31T05:57:42.652Z,7.33
2018-08-31T06:07:45.258Z,7.80
2018-08-31T06:17:47.744Z,8.30
2018-08-31T06:27:51.469Z,7.20
2018-08-31T06:37:57.623Z,8.30
2018-08-31T06:48:12.607Z,7.60
2018-08-31T06:58:15.381Z,8.17
2018-08-31T07:08:18.014Z,7.90
2018-08-31T07:18:23.171Z,8.00
2018-08-31T07:28:25.858Z,8.87
2018-08-31T07:38:31.796Z,8.00
2018-08-31T07:48:48.946Z,6.60
2018-08-31T07:58:56.523Z,7.60
2018-08-31T08:08:59.074Z,8.00
2018-08-31T08:19:12.834Z,7.67
2018-08-31T08:29:18.072Z,7.23
2018-08-31T08:39:26.378Z,7.00
2018-08-31T08:49:31.755Z,7.80
2018-08-31T08:59:41.780Z,10.27
2018-08-31T09:09:45.136Z,6.97
2018-08-31T09:19:47.731Z,6.40
2018-08-31T09:29:52.411Z,6.20
2018-08-31T09:39:55.050Z,6.53
2018-08-31T09:50:16.011Z,7.07
2018-08-31T10:00:24.148Z,6.33
2018-08-31T10:10:26.650Z,5.70
2018-08-31T10:20:32.549Z,6.60
2018-08-31T10:30:35.193Z,7.33
2018-08-31T10:40:38.702Z,5.70
2018-08-31T10:50:41.485Z,6.10
2018-08-31T11:00:44.216Z,5.73
2018-08-31T11:10:46.843Z,5.70
2018-08-31T11:21:00.088Z,6.20
2018-08-31T11:31:02.688Z,5.73
2018-08-31T11:41:07.299Z,5.80
2018-08-31T11:51:10.956Z,6.37
2018-08-31T12:01:13.578Z,6.20
2018-08-31T12:11:16.157Z,5.73
2018-08-31T12:21:18.653Z,5.93
2018-08-31T12:31:21.181Z,5.53
2018-08-31T12:41:27.078Z,6.20
2018-08-31T12:51:33.381Z,7.27
2018-08-31T13:01:35.903Z,6.60
2018-08-31T13:11:38.428Z,6.87
2018-08-31T13:21:41.980Z,7.07
2018-08-31T13:31:44.533Z,7.43
2018-08-31T13:41:47.356Z,10.30
2018-08-31T13:51:49.957Z,9.80
2018-08-31T14:01:52.560Z,7.80
2018-08-31T14:11:55.148Z,8.23
2018-08-31T14:21:57.658Z,8.40
2018-08-31T14:32:00.254Z,7.40
2018-08-31T14:42:08.575Z,8.47
2018-08-31T14:52:11.142Z,8.00
2018-08-31T15:02:14.694Z,9.80
2018-08-31T15:12:26.276Z,10.07
2018-08-31T15:22:29.991Z,9.50
2018-08-31T15:32:32.531Z,9.60
2018-08-31T15:42:35.048Z,9.43
2018-08-31T15:52:37.575Z,9.60
2018-08-31T16:02:40.803Z,10.00
2018-08-31T16:12:43.432Z,10.13
2018-08-31T16:22:45.898Z,10.63
2018-08-31T16:32:49.564Z,26.70
2018-08-31T16:43:10.756Z,15.10
2018-08-31T16:53:15.375Z,12.03
2018-08-31T17:03:18.987Z,12.90
2018-08-31T17:13:23.591Z,11.70
2018-08-31T17:23:27.130Z,12.50
2018-08-31T17:33:35.279Z,12.90
2018-08-31T17:43:37.747Z,12.80
2018-08-31T17:53:40.278Z,11.43
2018-08-31T18:03:42.852Z,12.90
2018-08-31T18:13:45.319Z,13.33
2018-08-31T18:23:48.867Z,12.67
2018-08-31T18:33:51.356Z,12.80
2018-08-31T18:43:54.001Z,12.80
2018-08-31T18:53:59.891Z,12.43
2018-08-31T19:04:02.619Z,12.70
2018-08-31T19:14:15.223Z,13.03
2018-08-31T19:24:19.010Z,12.47
2018-08-31T19:34:21.804Z,12.13
2018-08-31T19:44:26.029Z,12.33
2018-08-31T19:54:29.977Z,13.07
2018-08-31T20:04:33.140Z,12.70
2018-08-31T20:14:41.095Z,12.10
2018-08-31T20:24:44.712Z,11.53
2018-08-31T20:34:54.984Z,11.73
2018-08-31T20:44:58.611Z,11.77
2018-08-31T20:55:02.758Z,10.50
2018-08-31T21:05:24.600Z,10.67
2018-08-31T21:15:28.351Z,9.10
2018-08-31T21:25:35.773Z,8.10
2018-08-31T21:35:39.422Z,6.53
2018-08-31T21:45:42.061Z,7.60
2018-08-31T21:55:44.650Z,7.73
2018-08-31T22:05:48.069Z,7.30
2018-08-31T22:16:01.822Z,7.00
2018-08-31T22:26:04.335Z,7.50
2018-08-31T22:36:06.834Z,6.70
2018-08-31T22:46:09.502Z,6.80
2018-08-31T22:56:12.197Z,7.37
2018-08-31T23:06:16.148Z,7.67
2018-08-31T23:16:18.795Z,7.60
2018-08-31T23:26:42.325Z,7.50
2018-08-31T23:36:50.278Z,6.40
2018-08-31T23:47:13.179Z,7.03
2018-08-31T23:57:15.696Z,6.87
